Time;durP1;ratioP1;P1;durP2;ratioP2;P2;SDS_P1;SDS_P2;PMS_P1;PMS_P2;Temp;Humidity;BMP_temperature;BMP_pressure;BME280_temperature;BME280_humidity;BME280_pressure;Samples;Min_cycle;Max_cycle;Signal;HPM_P1;HPM_P2
2023/01/11 00:00:24;;;;;;;1.73;0.90;;;6.70;99.90;;;;;;4975172;28;20198;-39
2023/01/11 00:03:01;;;;;;;1.30;0.80;;;6.70;99.90;;;;;;4992485;28;20207;-42
2023/01/11 00:05:27;;;;;;;1.87;0.97;;;6.70;99.90;;;;;;4974970;28;20186;-39
2023/01/11 00:07:54;;;;;;;2.13;1.00;;;6.70;99.90;;;;;;4974715;28;20199;-41
2023/01/11 00:10:19;;;;;;;1.40;0.90;;;6.80;99.90;;;;;;4992832;28;20269;-42
2023/01/11 00:12:45;;;;;;;3.13;0.97;;;6.80;99.90;;;;;;4974807;28;20301;-40
2023/01/11 00:15:12;;;;;;;3.67;1.20;;;6.80;99.90;;;;;;4991262;28;20187;-41
2023/01/11 00:17:38;;;;;;;3.03;1.20;;;6.90;99.90;;;;;;4998349;28;20190;-41
2023/01/11 00:20:05;;;;;;;1.77;1.10;;;6.90;99.90;;;;;;4971052;28;20191;-43
2023/01/11 00:22:31;;;;;;;1.83;1.00;;;6.80;99.90;;;;;;4990217;28;20196;-44
2023/01/11 00:24:56;;;;;;;3.53;1.53;;;6.80;99.90;;;;;;4992273;28;20191;-44
2023/01/11 00:27:22;;;;;;;4.50;1.30;;;6.90;99.90;;;;;;4990905;28;20183;-43
2023/01/11 00:29:48;;;;;;;2.20;1.10;;;6.90;99.90;;;;;;4974359;28;20187;-44
2023/01/11 00:32:13;;;;;;;3.03;1.10;;;6.90;99.90;;;;;;4991102;28;20243;-43
2023/01/11 00:34:39;;;;;;;2.90;1.40;;;6.90;99.90;;;;;;4974595;28;20175;-44
2023/01/11 00:37:05;;;;;;;1.30;0.90;;;6.90;99.90;;;;;;4974969;28;20187;-44
2023/01/11 00:39:31;;;;;;;3.43;1.00;;;6.90;99.90;;;;;;4990556;28;20223;-43
2023/01/11 00:50:10;;;;;;;1.27;0.90;;;7.00;99.90;;;;;;5002876;28;20182;-44
2023/01/11 00:52:35;;;;;;;2.10;0.90;;;6.90;99.90;;;;;;5009965;28;20219;-43
2023/01/11 00:55:01;;;;;;;2.57;0.90;;;6.90;99.90;;;;;;4998767;28;20192;-43
2023/01/11 00:57:27;;;;;;;3.00;1.17;;;6.90;99.90;;;;;;4990790;28;20175;-43
2023/01/11 00:59:53;;;;;;;2.33;0.90;;;6.90;99.90;;;;;;4990180;28;20194;-42
2023/01/11 01:02:19;;;;;;;1.60;0.60;;;6.90;99.90;;;;;;4974680;28;20265;-42
2023/01/11 01:04:44;;;;;;;1.30;0.70;;;6.90;99.90;;;;;;4974132;28;20183;-41
2023/01/11 01:07:10;;;;;;;1.87;0.90;;;6.90;99.90;;;;;;4990725;28;20190;-44
2023/01/11 01:09:37;;;;;;;1.03;0.80;;;6.90;99.90;;;;;;4991607;28;20280;-43
2023/01/11 01:12:03;;;;;;;2.80;1.27;;;6.90;99.90;;;;;;4991982;28;20235;-43
2023/01/11 01:14:30;;;;;;;1.67;0.60;;;7.00;99.90;;;;;;4974090;28;20175;-43
2023/01/11 01:17:00;;;;;;;3.40;0.90;;;7.00;99.90;;;;;;4983915;28;20195;-44
2023/01/11 01:19:27;;;;;;;1.20;0.70;;;7.00;99.90;;;;;;4981049;28;20180;-43
2023/01/11 01:21:55;;;;;;;1.23;0.70;;;7.00;99.90;;;;;;4971215;28;20309;-43
2023/01/11 01:24:21;;;;;;;2.27;0.80;;;7.00;99.90;;;;;;4977312;28;20195;-42
2023/01/11 01:26:46;;;;;;;1.17;0.77;;;7.00;99.90;;;;;;4974325;28;20191;-42
2023/01/11 01:29:14;;;;;;;1.07;0.67;;;7.00;99.90;;;;;;4973788;28;20194;-43
2023/01/11 01:31:41;;;;;;;2.67;0.70;;;7.00;99.90;;;;;;4990492;28;20214;-43
2023/01/11 01:34:08;;;;;;;2.27;1.00;;;7.00;99.90;;;;;;4991177;28;20291;-44
2023/01/11 01:36:34;;;;;;;1.83;0.90;;;7.00;99.90;;;;;;4974098;28;20248;-43
2023/01/11 01:39:00;;;;;;;1.13;0.60;;;7.10;99.90;;;;;;4973901;28;20234;-44
2023/01/11 01:41:27;;;;;;;3.40;0.60;;;7.10;99.90;;;;;;4990036;28;20226;-41
2023/01/11 01:43:56;;;;;;;0.60;0.40;;;7.10;99.90;;;;;;4990106;28;20339;-44
2023/01/11 01:46:26;;;;;;;1.10;0.87;;;7.10;99.90;;;;;;4981851;28;20252;-41
2023/01/11 01:48:56;;;;;;;1.03;0.60;;;7.10;99.90;;;;;;5001983;28;20190;-43
2023/01/11 01:51:46;;;;;;;1.50;0.67;;;7.10;99.90;;;;;;4973990;28;20287;-42
2023/01/11 01:54:19;;;;;;;1.60;0.80;;;7.10;99.90;;;;;;4973526;28;20172;-43
2023/01/11 01:56:51;;;;;;;3.37;1.20;;;7.10;99.90;;;;;;4979637;28;20179;-42
2023/01/11 01:59:18;;;;;;;1.93;1.00;;;7.10;99.90;;;;;;4973796;28;20184;-42
2023/01/11 02:01:48;;;;;;;0.80;0.70;;;7.10;99.90;;;;;;4992042;28;20217;-44
2023/01/11 02:04:32;;;;;;;4.23;1.00;;;7.10;99.90;;;;;;4994617;28;20656;-43
2023/01/11 02:07:09;;;;;;;2.27;0.60;;;7.10;99.90;;;;;;4977729;28;20649;-43
2023/01/11 02:09:37;;;;;;;2.10;0.70;;;7.20;99.90;;;;;;4976967;28;20182;-43
2023/01/11 02:12:05;;;;;;;1.23;0.70;;;7.20;99.90;;;;;;4993768;28;20199;-43
2023/01/11 02:14:33;;;;;;;2.00;0.60;;;7.20;99.90;;;;;;4994591;28;20179;-44
2023/01/11 02:16:59;;;;;;;1.73;0.70;;;7.20;99.90;;;;;;4978808;28;20270;-43
2023/01/11 02:19:28;;;;;;;1.07;0.73;;;7.20;99.90;;;;;;4988453;28;20268;-43
2023/01/11 02:22:13;;;;;;;1.80;0.70;;;7.20;99.90;;;;;;4993355;28;20211;-42
2023/01/11 02:25:11;;;;;;;1.03;0.70;;;7.20;99.90;;;;;;4976829;28;20195;-43
2023/01/11 02:28:06;;;;;;;0.80;0.60;;;7.30;99.90;;;;;;4994568;28;20187;-41
2023/01/11 02:30:36;;;;;;;0.50;0.50;;;7.30;99.90;;;;;;4997788;28;20273;-41
2023/01/11 02:33:22;;;;;;;1.90;0.50;;;7.40;99.90;;;;;;4996071;28;20219;-43
2023/01/11 02:36:27;;;;;;;1.33;0.37;;;7.40;99.90;;;;;;4961402;28;20176;-43
2023/01/11 02:38:56;;;;;;;0.50;0.50;;;7.50;99.90;;;;;;4976540;28;20220;-42
2023/01/11 02:45:00;;;;;;;2.03;0.50;;;7.50;99.90;;;;;;4976397;28;20382;-44
2023/01/11 02:47:53;;;;;;;1.37;0.57;;;7.60;99.90;;;;;;5001751;28;20190;-43
2023/01/11 02:50:33;;;;;;;0.47;0.40;;;7.60;99.90;;;;;;4992515;28;20183;-41
2023/01/11 02:53:02;;;;;;;1.90;1.70;;;7.60;99.90;;;;;;4973106;28;20216;-43
2023/01/11 02:55:33;;;;;;;1.30;1.20;;;7.50;99.90;;;;;;4985565;28;20176;-42
2023/01/11 02:58:01;;;;;;;3.20;1.40;;;7.50;99.90;;;;;;4975470;28;20184;-43
2023/01/11 03:00:27;;;;;;;1.00;0.80;;;7.50;99.90;;;;;;4993544;28;20183;-43
2023/01/11 03:03:17;;;;;;;0.77;0.70;;;7.50;99.90;;;;;;4976204;28;20223;-44
2023/01/11 03:05:49;;;;;;;0.70;0.40;;;7.50;99.90;;;;;;4992665;28;20187;-44
2023/01/11 03:08:17;;;;;;;0.37;0.37;;;7.50;99.90;;;;;;4993630;28;20192;-44
2023/01/11 03:10:56;;;;;;;1.77;0.40;;;7.60;99.90;;;;;;4992403;28;20266;-44
2023/01/11 03:13:48;;;;;;;0.60;0.60;;;7.60;99.90;;;;;;4956498;28;20227;-43
2023/01/11 03:16:25;;;;;;;1.13;0.60;;;7.60;99.90;;;;;;4992629;28;20194;-43
2023/01/11 03:19:20;;;;;;;0.60;0.50;;;7.50;99.90;;;;;;5004755;28;20703;-44
2023/01/11 03:22:00;;;;;;;0.97;0.50;;;7.50;99.90;;;;;;4990052;28;20210;-42
2023/01/11 03:24:29;;;;;;;0.40;0.40;;;7.50;99.90;;;;;;4976102;28;20187;-44
2023/01/11 03:27:13;;;;;;;1.37;0.70;;;7.50;99.90;;;;;;4991958;28;20183;-44
2023/01/11 03:30:01;;;;;;;0.43;0.40;;;7.60;99.90;;;;;;4975757;28;20179;-42
2023/01/11 03:32:45;;;;;;;0.73;0.50;;;7.60;99.90;;;;;;4972294;28;20213;-44
2023/01/11 03:35:39;;;;;;;0.60;0.50;;;7.60;99.90;;;;;;4956366;28;20219;-44
2023/01/11 03:38:18;;;;;;;0.30;0.30;;;7.60;99.90;;;;;;4956554;28;20183;-44
2023/01/11 03:40:49;;;;;;;0.80;0.60;;;7.60;99.90;;;;;;4959571;28;20183;-43
2023/01/11 03:43:19;;;;;;;0.43;0.40;;;7.50;99.90;;;;;;4992106;28;20188;-43
2023/01/11 03:45:57;;;;;;;0.50;0.43;;;7.50;99.90;;;;;;4996866;28;20184;-43
2023/01/11 03:48:52;;;;;;;0.30;0.30;;;7.60;99.90;;;;;;5004715;28;20186;-41
2023/01/11 03:51:26;;;;;;;1.13;0.47;;;7.60;99.90;;;;;;4946741;28;20235;-44
2023/01/11 03:53:56;;;;;;;1.40;0.50;;;7.70;99.90;;;;;;4990949;28;20233;-43
2023/01/11 03:56:29;;;;;;;0.50;0.50;;;7.70;99.90;;;;;;4975365;28;20176;-43
2023/01/11 03:58:55;;;;;;;1.13;0.40;;;7.70;99.90;;;;;;4992884;28;20187;-44
2023/01/11 04:01:20;;;;;;;0.40;0.40;;;7.70;99.90;;;;;;4990050;28;20212;-43
2023/01/11 04:03:46;;;;;;;0.70;0.70;;;7.80;99.90;;;;;;4974776;28;20195;-43
2023/01/11 04:06:12;;;;;;;2.27;0.40;;;7.80;99.90;;;;;;4991232;28;20183;-44
2023/01/11 04:08:38;;;;;;;0.63;0.63;;;7.80;99.90;;;;;;4974884;28;20184;-43
2023/01/11 04:11:04;;;;;;;1.17;0.53;;;7.80;99.90;;;;;;4991049;28;20199;-44
2023/01/11 04:13:31;;;;;;;0.93;0.40;;;7.90;99.90;;;;;;4991020;28;20186;-44
2023/01/11 04:15:56;;;;;;;0.40;0.40;;;7.90;99.90;;;;;;4997618;28;20182;-44
2023/01/11 04:18:22;;;;;;;0.50;0.50;;;7.90;99.90;;;;;;5004247;28;20238;-41
2023/01/11 04:20:48;;;;;;;0.40;0.40;;;7.90;99.90;;;;;;4991774;28;20180;-44
2023/01/11 04:23:14;;;;;;;2.10;0.50;;;7.90;99.90;;;;;;4975813;28;20187;-43
2023/01/11 04:25:39;;;;;;;0.50;0.50;;;7.90;99.90;;;;;;4974901;28;20199;-44
2023/01/11 04:28:05;;;;;;;0.40;0.40;;;7.90;99.90;;;;;;4975633;28;20179;-44
2023/01/11 04:30:31;;;;;;;0.30;0.30;;;7.90;99.90;;;;;;4992847;28;20180;-44
2023/01/11 04:32:58;;;;;;;0.97;0.50;;;7.90;99.90;;;;;;4975466;28;20211;-44
2023/01/11 04:35:24;;;;;;;2.77;0.57;;;7.90;99.90;;;;;;4975605;28;20576;-44
2023/01/11 04:37:54;;;;;;;1.67;0.60;;;7.90;99.90;;;;;;4982824;28;20555;-44
2023/01/11 04:40:20;;;;;;;2.00;0.60;;;7.90;99.90;;;;;;5011491;28;20179;-44
2023/01/11 04:42:46;;;;;;;0.50;0.50;;;7.90;99.90;;;;;;4993480;28;20203;-43
2023/01/11 04:45:12;;;;;;;1.53;0.67;;;7.90;99.90;;;;;;4974967;28;20246;-44
2023/01/11 04:47:39;;;;;;;0.30;0.30;;;7.90;99.90;;;;;;4985364;28;20184;-44
2023/01/11 04:50:07;;;;;;;0.73;0.53;;;7.90;99.90;;;;;;4979670;28;20191;-44
2023/01/11 04:52:34;;;;;;;1.93;0.60;;;7.90;99.90;;;;;;4971407;28;20221;-44
2023/01/11 04:55:00;;;;;;;0.50;0.50;;;7.90;99.90;;;;;;4984311;28;20176;-39
2023/01/11 04:57:26;;;;;;;0.63;0.60;;;7.90;99.90;;;;;;4991190;28;20227;-44
2023/01/11 04:59:52;;;;;;;2.43;0.63;;;7.90;99.90;;;;;;4974083;28;20179;-44
2023/01/11 05:02:18;;;;;;;1.03;0.80;;;7.90;99.90;;;;;;4983942;28;20295;-44
2023/01/11 05:04:44;;;;;;;0.87;0.70;;;7.90;99.90;;;;;;4986785;28;20362;-43
2023/01/11 05:07:10;;;;;;;1.03;0.90;;;7.90;99.90;;;;;;4972710;28;20192;-43
2023/01/11 05:09:36;;;;;;;0.50;0.50;;;7.90;99.90;;;;;;4990864;28;20197;-43
2023/01/11 05:12:02;;;;;;;2.10;1.10;;;7.90;99.90;;;;;;4990537;28;20287;-44
2023/01/11 05:14:27;;;;;;;3.37;1.40;;;7.90;99.90;;;;;;4969610;28;20336;-43
2023/01/11 05:16:53;;;;;;;3.60;2.57;;;7.90;99.90;;;;;;4997698;28;20197;-43
2023/01/11 05:19:19;;;;;;;3.40;2.00;;;7.90;99.90;;;;;;5006529;28;20179;-43
2023/01/11 05:21:45;;;;;;;6.07;4.00;;;7.90;99.90;;;;;;4998542;28;20211;-43
2023/01/11 05:24:15;;;;;;;4.00;3.03;;;8.00;99.90;;;;;;4974381;28;20244;-43
2023/01/11 05:26:43;;;;;;;2.47;1.07;;;7.90;99.90;;;;;;4973695;28;20180;-43
2023/01/11 05:29:12;;;;;;;1.67;1.00;;;8.00;99.90;;;;;;4991677;28;20187;-43
2023/01/11 05:31:39;;;;;;;1.67;1.10;;;8.00;99.90;;;;;;4991259;28;20222;-44
2023/01/11 05:34:06;;;;;;;1.70;0.90;;;7.90;99.90;;;;;;4973983;28;20186;-43
2023/01/11 05:36:32;;;;;;;0.87;0.60;;;7.90;99.90;;;;;;4992978;28;20179;-44
2023/01/11 05:38:58;;;;;;;0.70;0.67;;;7.90;99.90;;;;;;4994571;28;20180;-43
2023/01/11 05:41:26;;;;;;;1.07;0.80;;;7.90;99.90;;;;;;4977015;28;20223;-43
2023/01/11 05:46:39;;;;;;;1.10;0.50;;;7.90;99.90;;;;;;4992911;28;20180;-44
2023/01/11 05:49:06;;;;;;;0.83;0.60;;;7.90;99.90;;;;;;4988316;28;20177;-44
2023/01/11 05:51:33;;;;;;;0.57;0.57;;;7.90;99.90;;;;;;4969559;28;20222;-43
2023/01/11 05:53:59;;;;;;;2.10;0.80;;;7.90;99.90;;;;;;4961832;28;20243;-43
2023/01/11 05:56:26;;;;;;;0.50;0.50;;;7.90;99.90;;;;;;4984299;28;20176;-44
2023/01/11 05:58:52;;;;;;;0.80;0.60;;;8.00;99.90;;;;;;4981324;28;20185;-43
2023/01/11 06:01:19;;;;;;;0.83;0.60;;;8.00;99.90;;;;;;4959159;28;20343;-44
2023/01/11 06:03:45;;;;;;;0.50;0.50;;;8.10;99.90;;;;;;4975373;28;20263;-45
2023/01/11 06:06:12;;;;;;;0.57;0.57;;;8.10;99.90;;;;;;4959239;28;20200;-43
2023/01/11 06:08:38;;;;;;;2.07;0.70;;;8.10;99.90;;;;;;4968994;28;20188;-43
2023/01/11 06:11:04;;;;;;;0.60;0.60;;;8.20;99.90;;;;;;4957891;28;20173;-44
2023/01/11 06:13:32;;;;;;;2.50;0.77;;;8.20;99.90;;;;;;4970835;28;20199;-43
2023/01/11 06:16:00;;;;;;;1.67;0.60;;;8.20;99.90;;;;;;4999329;28;20190;-42
2023/01/11 06:18:31;;;;;;;1.03;0.73;;;8.20;99.90;;;;;;4995930;28;20230;-44
2023/01/11 06:20:57;;;;;;;1.13;0.60;;;8.20;99.90;;;;;;4994001;28;20184;-43
2023/01/11 06:23:24;;;;;;;3.07;1.50;;;8.20;99.90;;;;;;4977150;28;20204;-43
2023/01/11 06:25:50;;;;;;;4.83;2.63;;;8.20;99.90;;;;;;4993994;28;20199;-44
2023/01/11 06:28:16;;;;;;;4.27;2.37;;;8.20;99.90;;;;;;4993938;28;20180;-43
2023/01/11 06:30:42;;;;;;;3.07;2.07;;;8.20;99.90;;;;;;4976988;28;20187;-44
2023/01/11 06:33:08;;;;;;;3.47;1.90;;;8.30;99.90;;;;;;4973492;28;20238;-43
2023/01/11 06:35:39;;;;;;;2.50;1.73;;;8.20;99.90;;;;;;4957651;28;20176;-44
2023/01/11 06:38:06;;;;;;;1.77;1.00;;;8.20;99.90;;;;;;4982921;28;20180;-41
2023/01/11 06:40:33;;;;;;;1.13;1.00;;;8.20;99.90;;;;;;4993915;28;20270;-43
2023/01/11 06:42:58;;;;;;;0.83;0.83;;;8.20;99.90;;;;;;4976541;28;20211;-43
2023/01/11 06:45:24;;;;;;;1.53;1.00;;;8.20;99.90;;;;;;4974103;28;20184;-43
2023/01/11 06:47:50;;;;;;;1.67;0.97;;;8.20;99.90;;;;;;4982392;28;20191;-43
2023/01/11 06:50:16;;;;;;;1.00;0.90;;;8.10;99.90;;;;;;4992719;28;20206;-43
2023/01/11 06:52:42;;;;;;;1.97;1.20;;;8.20;99.90;;;;;;4993630;28;20207;-43
2023/01/11 06:55:08;;;;;;;1.63;0.90;;;8.20;99.90;;;;;;4973211;28;20271;-44
2023/01/11 06:57:35;;;;;;;0.80;0.80;;;8.10;99.90;;;;;;4964760;28;20175;-44
2023/01/11 07:00:02;;;;;;;1.00;0.70;;;8.20;99.90;;;;;;4977285;28;20660;-44
2023/01/11 07:02:28;;;;;;;1.27;0.80;;;8.20;99.90;;;;;;4960707;28;20207;-44
2023/01/11 07:04:56;;;;;;;1.17;1.00;;;8.20;99.90;;;;;;4976174;28;20357;-41
2023/01/11 07:07:21;;;;;;;1.17;0.73;;;8.20;99.90;;;;;;4975750;28;20254;-43
2023/01/11 07:09:47;;;;;;;1.73;0.80;;;8.20;99.90;;;;;;4985643;28;20717;-43
2023/01/11 07:12:13;;;;;;;1.53;0.70;;;8.20;99.90;;;;;;4960367;28;20618;-44
2023/01/11 07:14:39;;;;;;;0.80;0.80;;;8.20;99.90;;;;;;4976751;28;20176;-43
2023/01/11 07:17:05;;;;;;;0.93;0.73;;;8.10;99.90;;;;;;4984251;28;20184;-44
2023/01/11 07:19:30;;;;;;;1.33;0.90;;;8.10;99.90;;;;;;4994540;28;20213;-44
2023/01/11 07:21:56;;;;;;;3.00;0.60;;;8.10;99.90;;;;;;5001901;28;20282;-44
2023/01/11 07:24:24;;;;;;;0.77;0.70;;;8.10;99.90;;;;;;4975231;28;20180;-44
2023/01/11 07:26:49;;;;;;;1.83;1.40;;;8.20;99.90;;;;;;4992021;28;20188;-43
2023/01/11 07:29:15;;;;;;;4.10;0.80;;;8.20;99.90;;;;;;4975693;28;20198;-44
2023/01/11 07:31:41;;;;;;;1.13;0.90;;;8.20;99.90;;;;;;4976701;28;20212;-43
2023/01/11 07:34:08;;;;;;;2.27;0.90;;;8.20;99.90;;;;;;4993182;28;20180;-44
2023/01/11 07:36:38;;;;;;;2.50;0.70;;;8.30;99.90;;;;;;4975985;28;20176;-43
2023/01/11 07:39:04;;;;;;;1.27;0.60;;;8.30;99.90;;;;;;4993114;28;20183;-44
2023/01/11 07:44:15;;;;;;;2.00;0.90;;;8.30;99.90;;;;;;4992717;28;20199;-44
2023/01/11 07:46:41;;;;;;;3.00;0.83;;;8.30;99.90;;;;;;4968288;28;20176;-44
2023/01/11 07:49:06;;;;;;;1.07;0.97;;;8.40;99.90;;;;;;5008468;28;20274;-44
2023/01/11 07:51:33;;;;;;;2.13;0.97;;;8.40;99.90;;;;;;4995616;28;20281;-44
2023/01/11 07:54:01;;;;;;;3.93;2.23;;;8.40;99.90;;;;;;5013500;28;20186;-44
2023/01/11 07:56:27;;;;;;;1.20;1.10;;;8.40;99.90;;;;;;5012184;28;20205;-42
2023/01/11 07:58:53;;;;;;;2.00;0.83;;;8.50;99.90;;;;;;5013100;28;20237;-43
2023/01/11 08:01:20;;;;;;;1.10;0.87;;;8.60;99.90;;;;;;5009607;28;20214;-43
2023/01/11 08:03:47;;;;;;;2.47;1.50;;;8.60;99.90;;;;;;4975752;28;20211;-43
2023/01/11 08:06:16;;;;;;;2.27;1.77;;;8.70;99.90;;;;;;4974588;28;20188;-43
2023/01/11 08:08:43;;;;;;;2.47;1.90;;;8.70;99.90;;;;;;4974837;28;20187;-43
2023/01/11 08:14:39;;;;;;;2.20;1.50;;;8.80;99.90;;;;;;5003611;28;20198;-42
2023/01/11 08:16:40;;;;;;;3.63;1.57;;;8.90;99.90;;;;;;4972540;28;20194;-41
2023/01/11 08:19:06;;;;;;;2.90;1.77;;;9.00;99.90;;;;;;4997280;28;20179;-44
2023/01/11 08:21:32;;;;;;;1.67;1.30;;;9.00;99.90;;;;;;4990473;28;20199;-42
2023/01/11 08:23:58;;;;;;;3.17;1.40;;;9.10;99.90;;;;;;4991771;28;20266;-43
2023/01/11 08:26:25;;;;;;;1.23;1.03;;;9.10;99.90;;;;;;4992544;28;20182;-44
2023/01/11 08:28:52;;;;;;;3.77;1.17;;;9.10;99.90;;;;;;4975606;28;20184;-43
2023/01/11 08:31:19;;;;;;;1.60;1.20;;;9.10;99.90;;;;;;4991809;28;20200;-43
2023/01/11 08:33:45;;;;;;;2.33;1.37;;;9.10;99.90;;;;;;4974788;28;20271;-44
2023/01/11 08:36:12;;;;;;;2.10;1.57;;;9.10;99.90;;;;;;4974855;28;20247;-43
2023/01/11 08:38:38;;;;;;;4.60;2.33;;;9.10;99.90;;;;;;4974412;28;20180;-42
2023/01/11 08:41:09;;;;;;;3.00;1.97;;;9.10;99.90;;;;;;4974845;28;20218;-43
2023/01/11 08:43:36;;;;;;;3.57;2.33;;;9.10;99.90;;;;;;4974808;28;20207;-43
2023/01/11 08:46:02;;;;;;;3.67;2.40;;;9.10;99.90;;;;;;4980453;28;20187;-43
2023/01/11 08:48:28;;;;;;;3.63;2.60;;;9.20;99.90;;;;;;5002039;28;20206;-43
2023/01/11 08:50:53;;;;;;;5.03;2.80;;;9.20;99.90;;;;;;5011366;28;20179;-42
2023/01/11 08:53:22;;;;;;;3.30;2.40;;;9.20;99.90;;;;;;5011473;28;20195;-43
2023/01/11 08:55:49;;;;;;;2.70;1.70;;;9.30;99.90;;;;;;5010222;28;20183;-42
2023/01/11 08:58:15;;;;;;;1.43;1.30;;;9.30;99.90;;;;;;4993915;28;20184;-44
2023/01/11 09:00:41;;;;;;;1.07;1.00;;;9.40;99.90;;;;;;5011380;28;20171;-44
2023/01/11 09:03:07;;;;;;;1.07;0.97;;;9.50;99.90;;;;;;5011413;28;20207;-43
2023/01/11 09:05:33;;;;;;;1.17;0.80;;;9.60;99.90;;;;;;4993788;28;20175;-43
2023/01/11 09:07:59;;;;;;;1.47;0.77;;;9.70;99.90;;;;;;5011454;28;20178;-43
2023/01/11 09:10:26;;;;;;;0.87;0.77;;;9.70;99.90;;;;;;5010922;28;20183;-44
2023/01/11 09:12:55;;;;;;;1.37;0.90;;;9.70;99.90;;;;;;5011410;28;20213;-43
2023/01/11 09:15:22;;;;;;;1.67;0.97;;;9.80;99.90;;;;;;4987066;28;20231;-43
2023/01/11 09:17:49;;;;;;;1.00;0.90;;;9.80;99.90;;;;;;5003022;28;20163;-43
2023/01/11 09:20:15;;;;;;;1.63;1.10;;;9.80;99.90;;;;;;4993672;28;20175;-43
2023/01/11 09:22:45;;;;;;;2.37;1.00;;;9.80;99.90;;;;;;5010920;28;20206;-44
2023/01/11 09:25:11;;;;;;;2.37;0.90;;;9.80;99.90;;;;;;4993678;28;20577;-43
2023/01/11 09:27:36;;;;;;;4.13;1.30;;;9.80;99.90;;;;;;4993518;28;20180;-40
2023/01/11 09:30:03;;;;;;;1.90;1.40;;;9.80;99.90;;;;;;5011035;28;20179;-44
2023/01/11 09:32:29;;;;;;;1.73;1.13;;;9.80;99.90;;;;;;4999878;28;20235;-43
2023/01/11 09:34:56;;;;;;;1.63;1.33;;;9.80;99.90;;;;;;4990513;28;20179;-43
2023/01/11 09:37:23;;;;;;;2.83;1.43;;;9.80;99.90;;;;;;4976379;28;20184;-43
2023/01/11 09:39:51;;;;;;;2.47;1.77;;;9.90;99.90;;;;;;4991213;28;20175;-43
2023/01/11 09:42:37;;;;;;;3.33;1.10;;;9.90;99.90;;;;;;4991006;28;20672;-43
2023/01/11 09:45:20;;;;;;;1.17;0.93;;;9.90;99.90;;;;;;4991274;28;20211;-43
2023/01/11 09:47:47;;;;;;;2.23;1.10;;;9.90;99.90;;;;;;4991867;28;20196;-44
2023/01/11 09:50:22;;;;;;;1.00;0.90;;;9.90;99.90;;;;;;4957586;28;20185;-44
2023/01/11 09:52:57;;;;;;;1.63;1.00;;;9.90;99.90;;;;;;4989521;28;20203;-42
2023/01/11 09:55:43;;;;;;;1.77;1.00;;;9.90;99.90;;;;;;4989992;28;20186;-41
2023/01/11 09:58:37;;;;;;;1.10;1.00;;;10.00;99.90;;;;;;4969534;28;20180;-43
2023/01/11 10:01:18;;;;;;;1.03;1.00;;;10.00;99.90;;;;;;4990718;28;20211;-42
2023/01/11 10:04:05;;;;;;;1.40;1.30;;;10.00;99.90;;;;;;4989051;28;20178;-43
2023/01/11 10:06:34;;;;;;;1.13;1.00;;;10.00;99.90;;;;;;4973125;28;20176;-43
2023/01/11 10:09:26;;;;;;;1.60;1.17;;;10.00;99.90;;;;;;4973139;28;20192;-44
2023/01/11 10:12:11;;;;;;;2.03;0.90;;;10.00;99.90;;;;;;4991032;28;20267;-43
2023/01/11 10:15:06;;;;;;;1.50;1.00;;;10.00;99.90;;;;;;5001766;28;20287;-44
2023/01/11 10:17:47;;;;;;;2.50;0.90;;;10.10;99.90;;;;;;4990240;28;20235;-43
2023/01/11 10:20:26;;;;;;;2.43;1.60;;;10.10;99.90;;;;;;5010614;28;20173;-43
2023/01/11 10:23:19;;;;;;;35.37;16.30;;;10.10;99.90;;;;;;5010987;28;20241;-43
2023/01/11 10:25:50;;;;;;;3.83;2.00;;;10.10;99.90;;;;;;4995056;28;20195;-44
2023/01/11 10:28:45;;;;;;;1.73;1.10;;;10.20;99.90;;;;;;4960475;28;20633;-43
2023/01/11 10:37:33;;;;;;;1.50;1.20;;;10.30;99.90;;;;;;4975820;28;20176;-43
2023/01/11 10:42:58;;;;;;;2.73;1.00;;;10.30;99.90;;;;;;4986123;28;20223;-44
2023/01/11 10:45:48;;;;;;;1.80;1.40;;;10.30;99.90;;;;;;4977588;28;20180;-43
2023/01/11 10:48:44;;;;;;;1.27;1.17;;;10.30;99.90;;;;;;4981609;28;20180;-44
2023/01/11 10:51:26;;;;;;;2.20;0.90;;;10.40;99.90;;;;;;4991986;28;20278;-44
2023/01/11 10:54:16;;;;;;;0.87;0.87;;;10.40;99.90;;;;;;4979924;28;20194;-43
2023/01/11 10:56:56;;;;;;;2.33;1.20;;;10.40;99.90;;;;;;5012455;28;20214;-44
2023/01/11 10:59:58;;;;;;;1.87;1.00;;;10.40;99.90;;;;;;5013576;28;20183;-44
2023/01/11 11:02:48;;;;;;;0.97;0.80;;;10.40;99.90;;;;;;4984940;28;20203;-44
2023/01/11 11:05:29;;;;;;;1.20;0.97;;;10.50;99.90;;;;;;4992363;28;20270;-44
2023/01/11 11:08:04;;;;;;;1.40;1.10;;;10.50;99.90;;;;;;4992486;28;20536;-44
2023/01/11 11:10:45;;;;;;;2.37;1.90;;;10.50;99.90;;;;;;4992321;28;20192;-44
2023/01/11 11:13:46;;;;;;;0.97;0.83;;;10.50;99.90;;;;;;4989741;28;20217;-43
2023/01/11 11:16:22;;;;;;;0.83;0.70;;;10.50;99.90;;;;;;4971257;28;20218;-44
2023/01/11 11:18:57;;;;;;;1.50;1.00;;;10.50;99.90;;;;;;4998813;28;20199;-44
2023/01/11 11:21:32;;;;;;;1.47;1.00;;;10.40;99.90;;;;;;4995125;28;20236;-42
2023/01/11 11:24:02;;;;;;;0.87;0.87;;;10.40;99.90;;;;;;4992079;28;20222;-44
2023/01/11 11:26:40;;;;;;;1.33;0.70;;;10.40;99.90;;;;;;4976149;28;20188;-43
2023/01/11 11:29:18;;;;;;;2.50;1.70;;;10.40;99.90;;;;;;4975576;28;20209;-44
2023/01/11 11:31:47;;;;;;;8.30;1.77;;;10.40;99.90;;;;;;4991467;28;20217;-44
2023/01/11 11:34:18;;;;;;;2.80;1.20;;;10.50;99.90;;;;;;4991821;28;20251;-44
2023/01/11 11:36:50;;;;;;;1.43;1.13;;;10.50;99.90;;;;;;4993328;28;20182;-44
2023/01/11 11:39:27;;;;;;;3.33;2.00;;;10.50;99.90;;;;;;4992425;28;20208;-42
2023/01/11 11:41:56;;;;;;;1.63;1.53;;;10.50;99.90;;;;;;4984319;28;20209;-44
2023/01/11 11:44:28;;;;;;;2.63;1.70;;;10.50;99.90;;;;;;4991775;28;20188;-44
2023/01/11 11:47:02;;;;;;;2.03;1.63;;;10.50;99.90;;;;;;4984687;28;20192;-44
2023/01/11 11:49:33;;;;;;;1.27;1.07;;;10.50;99.90;;;;;;5001139;28;20257;-44
2023/01/11 11:54:42;;;;;;;2.90;1.43;;;10.50;99.90;;;;;;4991172;28;20220;-37
2023/01/11 11:57:20;;;;;;;2.20;1.30;;;10.40;99.90;;;;;;4991776;28;20179;-37
2023/01/11 11:59:49;;;;;;;1.90;1.40;;;10.40;99.90;;;;;;4972109;28;20189;-36
2023/01/11 12:02:30;;;;;;;5.00;2.70;;;10.30;99.90;;;;;;4963348;28;20209;-36
2023/01/11 12:04:58;;;;;;;3.80;1.40;;;10.30;99.90;;;;;;4974498;28;20230;-38
2023/01/11 12:07:33;;;;;;;3.03;2.03;;;10.30;99.90;;;;;;4978656;28;20208;-40
2023/01/11 12:10:01;;;;;;;1.80;1.50;;;10.30;99.90;;;;;;4970172;28;20186;-39
2023/01/11 12:12:27;;;;;;;1.83;1.30;;;10.30;99.90;;;;;;4977026;28;20246;-39
2023/01/11 12:15:13;;;;;;;1.90;0.90;;;10.30;99.90;;;;;;4986609;28;20213;-42
2023/01/11 12:17:40;;;;;;;1.07;0.73;;;10.20;99.90;;;;;;4984951;28;20176;-38
2023/01/11 12:20:21;;;;;;;1.50;0.90;;;10.30;99.90;;;;;;4987364;28;20266;-38
2023/01/11 12:23:08;;;;;;;2.80;0.90;;;10.30;99.90;;;;;;4974736;28;20288;-39
2023/01/11 12:26:01;;;;;;;2.40;0.77;;;10.40;99.90;;;;;;4952508;28;20244;-39
2023/01/11 12:28:49;;;;;;;1.30;1.20;;;10.40;99.90;;;;;;4982453;28;20199;-39
2023/01/11 12:31:37;;;;;;;1.00;0.90;;;10.40;99.90;;;;;;4981350;28;20184;-39
2023/01/11 12:34:18;;;;;;;1.20;1.10;;;10.30;99.90;;;;;;4985367;28;20253;-38
2023/01/11 12:36:48;;;;;;;1.20;1.10;;;10.40;99.90;;;;;;4975732;28;20203;-38
2023/01/11 12:39:52;;;;;;;1.53;0.80;;;10.40;99.90;;;;;;4990420;28;20188;-40
2023/01/11 12:42:21;;;;;;;1.80;1.30;;;10.30;99.90;;;;;;4977459;28;20278;-39
2023/01/11 12:45:11;;;;;;;1.40;1.30;;;10.30;99.90;;;;;;4972476;28;20207;-40
2023/01/11 12:48:02;;;;;;;1.03;0.90;;;10.30;99.90;;;;;;4986522;28;20184;-39
2023/01/11 12:51:08;;;;;;;1.60;1.30;;;10.20;99.90;;;;;;4977822;28;20184;-41
2023/01/11 12:53:44;;;;;;;1.53;1.30;;;10.20;99.90;;;;;;4974489;28;20259;-40
2023/01/11 12:56:28;;;;;;;1.53;1.07;;;10.20;99.90;;;;;;4956026;28;20184;-38
2023/01/11 12:59:04;;;;;;;1.20;1.00;;;10.20;99.90;;;;;;4981423;28;20186;-38
2023/01/11 13:01:52;;;;;;;1.70;1.37;;;10.10;99.90;;;;;;4958778;28;20177;-39
2023/01/11 13:04:24;;;;;;;1.20;1.00;;;10.10;99.90;;;;;;4971474;28;20191;-38
2023/01/11 13:07:10;;;;;;;1.80;0.80;;;10.10;99.90;;;;;;4973880;28;20181;-36
2023/01/11 13:09:58;;;;;;;1.03;0.90;;;10.00;99.90;;;;;;4960133;28;20173;-38
2023/01/11 13:12:40;;;;;;;2.20;1.00;;;10.00;99.90;;;;;;4958529;28;20276;-37
2023/01/11 13:15:24;;;;;;;2.87;1.50;;;10.10;99.90;;;;;;4971795;28;20192;-37
2023/01/11 13:18:08;;;;;;;3.73;1.90;;;10.00;99.90;;;;;;4971973;28;20191;-37
2023/01/11 13:20:46;;;;;;;3.63;1.90;;;10.00;99.90;;;;;;4970393;28;20184;-36
2023/01/11 13:23:13;;;;;;;1.93;1.30;;;10.00;99.90;;;;;;4952948;28;20204;-36
2023/01/11 13:25:44;;;;;;;1.07;0.90;;;10.00;99.90;;;;;;4968338;28;20185;-37
2023/01/11 13:28:36;;;;;;;0.87;0.80;;;10.00;99.90;;;;;;4970476;28;20180;-36
2023/01/11 13:31:06;;;;;;;0.70;0.70;;;10.00;99.90;;;;;;4971921;28;20201;-36
2023/01/11 13:33:35;;;;;;;1.93;0.90;;;10.00;99.90;;;;;;4954447;28;20212;-37
2023/01/11 13:36:20;;;;;;;2.00;1.00;;;10.00;99.90;;;;;;4971924;28;20189;-36
2023/01/11 13:39:10;;;;;;;1.60;0.77;;;10.00;99.90;;;;;;4972978;28;20204;-35
2023/01/11 13:41:47;;;;;;;2.43;1.07;;;10.10;99.90;;;;;;4988678;28;20223;-36
2023/01/11 13:44:22;;;;;;;1.20;1.00;;;10.10;99.90;;;;;;4951279;28;20180;-36
2023/01/11 13:46:56;;;;;;;1.93;1.53;;;10.10;99.90;;;;;;4973462;28;20513;-35
2023/01/11 13:49:48;;;;;;;2.00;1.47;;;10.00;99.90;;;;;;4954849;28;20181;-36
2023/01/11 13:52:19;;;;;;;3.50;2.60;;;10.10;99.90;;;;;;4964639;28;20213;-36